createdAt,value
2022-10-13T00:00:35.359Z,347.95
2022-10-13T00:03:23.680Z,364.33
2022-10-13T00:06:12.031Z,361.65
2022-10-13T00:09:00.210Z,350.20
2022-10-13T00:11:49.439Z,363.20
2022-10-13T00:14:37.362Z,347.13
2022-10-13T00:17:25.270Z,332.35
2022-10-13T00:20:13.608Z,333.58
2022-10-13T00:23:01.529Z,331.05
2022-10-13T00:25:50.799Z,343.20
2022-10-13T00:28:40.839Z,343.05
2022-10-13T00:31:31.787Z,328.60
2022-10-13T00:34:19.695Z,339.52
2022-10-13T00:37:07.670Z,352.52
2022-10-13T00:39:55.569Z,337.92
2022-10-13T00:42:45.488Z,362.08
2022-10-13T00:45:34.963Z,342.02
2022-10-13T00:48:26.967Z,346.30
2022-10-13T00:51:18.972Z,364.17
2022-10-13T00:54:10.207Z,329.17
2022-10-13T00:56:58.684Z,334.33
2022-10-13T00:59:46.607Z,340.17
2022-10-13T01:02:38.149Z,362.05
2022-10-13T01:05:26.944Z,349.42
2022-10-13T01:08:17.318Z,337.05
2022-10-13T01:11:22.818Z,338.92
2022-10-13T01:14:19.185Z,350.38
2022-10-13T01:17:16.179Z,331.48
2022-10-13T01:20:33.474Z,324.83
2022-10-13T01:23:39.090Z,333.75
2022-10-13T01:26:56.154Z,355.20
2022-10-13T01:30:08.191Z,355.00
2022-10-13T01:33:14.872Z,344.70
2022-10-13T01:36:12.742Z,354.67
2022-10-13T01:39:06.753Z,348.52
2022-10-13T01:42:02.394Z,347.00
2022-10-13T01:44:54.012Z,343.92
2022-10-13T01:47:43.284Z,352.65
2022-10-13T01:50:33.593Z,352.67
2022-10-13T01:53:22.382Z,364.17
2022-10-13T01:56:14.623Z,348.00
2022-10-13T01:59:05.960Z,366.95
2022-10-13T02:02:04.382Z,370.15
2022-10-13T02:05:03.992Z,360.92
2022-10-13T02:07:57.159Z,342.50
2022-10-13T02:10:53.744Z,378.63
2022-10-13T02:13:47.888Z,367.58
2022-10-13T02:16:44.412Z,383.77
2022-10-13T02:19:35.458Z,363.58
2022-10-13T02:22:30.571Z,373.30
2022-10-13T02:25:20.297Z,362.80
2022-10-13T02:28:08.549Z,350.05
2022-10-13T02:31:03.279Z,337.58
2022-10-13T02:33:51.459Z,353.05
2022-10-13T02:36:41.638Z,337.63
2022-10-13T02:39:29.491Z,344.20
2022-10-13T02:42:17.654Z,364.02
2022-10-13T02:45:06.945Z,348.17
2022-10-13T02:47:55.118Z,356.08
2022-10-13T02:50:42.990Z,372.90
2022-10-13T02:53:32.360Z,357.63
2022-10-13T02:56:20.425Z,344.63
2022-10-13T02:59:08.450Z,357.30
2022-10-13T03:01:56.761Z,340.08
2022-10-13T03:04:45.088Z,340.08
2022-10-13T03:07:32.967Z,355.33
2022-10-13T03:10:22.473Z,359.38
2022-10-13T03:13:12.858Z,361.90
2022-10-13T03:16:00.792Z,353.35
2022-10-13T03:18:48.732Z,343.10
2022-10-13T03:21:37.866Z,345.70
2022-10-13T03:24:25.815Z,346.70
2022-10-13T03:27:15.767Z,358.58
2022-10-13T03:30:04.035Z,340.48
2022-10-13T03:32:54.146Z,337.15
2022-10-13T03:35:42.072Z,325.95
2022-10-13T03:38:30.620Z,336.73
2022-10-13T03:41:19.741Z,340.63
2022-10-13T03:44:13.237Z,319.90
2022-10-13T03:47:01.156Z,317.13
2022-10-13T03:49:49.080Z,357.25
2022-10-13T03:52:37.042Z,341.00
2022-10-13T03:55:24.924Z,345.10
2022-10-13T03:58:12.795Z,356.20
2022-10-13T04:01:06.291Z,351.27
2022-10-13T04:03:55.841Z,333.65
2022-10-13T04:06:43.767Z,345.92
2022-10-13T04:09:31.682Z,363.37
2022-10-13T04:12:21.029Z,325.85
2022-10-13T04:15:10.575Z,346.08
2022-10-13T04:17:59.849Z,340.02
2022-10-13T04:20:47.785Z,354.95
2022-10-13T04:23:35.732Z,342.77
2022-10-13T04:26:25.010Z,353.95
2022-10-13T04:29:13.225Z,346.77
2022-10-13T04:32:01.293Z,357.85
2022-10-13T04:34:50.627Z,340.30
2022-10-13T04:37:42.780Z,329.42
2022-10-13T04:40:32.878Z,332.63
2022-10-13T04:43:20.761Z,335.50
2022-10-13T04:46:11.468Z,336.02
2022-10-13T04:48:59.400Z,337.50
2022-10-13T04:51:54.476Z,330.75
2022-10-13T04:54:42.954Z,341.05
2022-10-13T04:57:30.821Z,342.27
2022-10-13T05:00:19.283Z,368.42
2022-10-13T05:03:07.766Z,370.75
2022-10-13T05:05:55.708Z,354.92
2022-10-13T05:08:45.070Z,349.48
2022-10-13T05:11:35.135Z,340.02
2022-10-13T05:14:23.363Z,338.20
2022-10-13T05:17:11.465Z,362.33
2022-10-13T05:19:59.317Z,365.13
2022-10-13T05:22:47.273Z,361.80
2022-10-13T05:25:37.599Z,356.77
2022-10-13T05:28:25.508Z,367.33
2022-10-13T05:31:15.554Z,382.75
2022-10-13T05:34:03.564Z,358.38
2022-10-13T05:36:51.472Z,357.88
2022-10-13T05:39:39.455Z,351.02
2022-10-13T05:42:30.346Z,345.80
2022-10-13T05:45:20.681Z,360.42
2022-10-13T05:48:08.754Z,341.60
2022-10-13T05:51:00.225Z,346.23
2022-10-13T05:53:55.369Z,328.77
2022-10-13T05:56:50.732Z,351.58
2022-10-13T05:59:44.446Z,354.67
2022-10-13T06:02:35.409Z,328.65
2022-10-13T06:05:05.719Z,347.67
2022-10-13T06:07:33.998Z,341.05
2022-10-13T06:10:02.254Z,340.98
2022-10-13T06:12:29.848Z,343.80
2022-10-13T06:14:58.776Z,371.63
2022-10-13T06:17:26.416Z,369.20
2022-10-13T06:19:54.033Z,370.80
2022-10-13T06:22:22.711Z,347.02
2022-10-13T06:24:50.743Z,368.55
2022-10-13T06:27:18.344Z,376.50
2022-10-13T06:29:47.889Z,368.33
2022-10-13T06:32:16.893Z,394.33
2022-10-13T06:34:44.483Z,367.88
2022-10-13T06:37:12.196Z,371.48
2022-10-13T06:39:39.829Z,367.10
2022-10-13T06:42:07.548Z,392.38
2022-10-13T06:44:38.863Z,380.20
2022-10-13T06:47:06.712Z,372.45
2022-10-13T06:49:35.791Z,375.70
2022-10-13T06:52:03.594Z,368.25
2022-10-13T06:54:31.393Z,385.60
2022-10-13T06:56:58.997Z,398.35
2022-10-13T06:59:27.655Z,386.40
2022-10-13T07:01:55.435Z,413.88
2022-10-13T07:04:25.835Z,412.85
2022-10-13T07:06:57.097Z,390.08
2022-10-13T07:09:24.703Z,374.17
2022-10-13T07:11:52.900Z,399.77
2022-10-13T07:14:20.499Z,397.48
2022-10-13T07:16:48.734Z,401.05
2022-10-13T07:19:16.386Z,406.30
2022-10-13T07:21:44.004Z,389.25
2022-10-13T07:24:13.133Z,401.10
2022-10-13T07:26:40.773Z,398.60
2022-10-13T07:29:09.286Z,409.58
2022-10-13T07:31:36.893Z,399.45
2022-10-13T07:34:05.579Z,410.63
2022-10-13T07:36:34.240Z,416.00
2022-10-13T07:39:03.079Z,409.27
2022-10-13T07:41:32.517Z,416.00
2022-10-13T07:44:00.231Z,394.95
2022-10-13T07:46:28.023Z,377.73
2022-10-13T07:48:56.474Z,364.42
2022-10-13T07:51:24.302Z,360.85
2022-10-13T07:53:52.266Z,389.10
2022-10-13T07:56:19.963Z,379.13
2022-10-13T07:58:48.937Z,368.48
2022-10-13T08:01:17.598Z,378.40
2022-10-13T08:03:49.928Z,385.00
2022-10-13T08:06:19.381Z,391.90
2022-10-13T08:08:47.839Z,396.00
2022-10-13T08:11:18.652Z,398.88
2022-10-13T08:13:52.290Z,400.65
2022-10-13T08:16:23.810Z,391.20
2022-10-13T08:18:51.649Z,411.98
2022-10-13T08:24:12.501Z,385.85
2022-10-13T08:26:41.037Z,419.90
2022-10-13T08:29:21.504Z,376.45
2022-10-13T08:34:23.197Z,404.92
2022-10-13T08:36:53.116Z,431.45
2022-10-13T08:39:22.876Z,451.20
2022-10-13T08:41:51.210Z,417.70
2022-10-13T08:47:25.372Z,439.92
2022-10-13T08:49:57.710Z,445.98
2022-10-13T08:52:30.317Z,454.00
2022-10-13T08:54:58.953Z,456.92
2022-10-13T08:57:27.407Z,482.42
2022-10-13T08:59:56.385Z,447.38
2022-10-13T09:02:27.087Z,439.42
2022-10-13T09:04:55.250Z,452.65
2022-10-13T09:07:27.510Z,428.95
2022-10-13T09:09:56.734Z,450.30
2022-10-13T09:12:26.153Z,454.60
2022-10-13T09:15:05.213Z,449.30
2022-10-13T09:17:34.468Z,451.08
2022-10-13T09:20:05.313Z,433.25
2022-10-13T09:22:35.470Z,440.73
2022-10-13T09:25:16.887Z,432.20
2022-10-13T09:27:47.656Z,447.85
2022-10-13T09:30:30.775Z,442.98
2022-10-13T09:33:22.304Z,423.27
2022-10-13T09:36:07.125Z,417.67
2022-10-13T09:38:35.929Z,392.48
2022-10-13T09:41:05.924Z,398.63
2022-10-13T09:43:35.516Z,391.40
2022-10-13T09:46:14.650Z,398.98
2022-10-13T09:48:45.915Z,388.70
2022-10-13T09:51:33.286Z,415.27
2022-10-13T09:54:07.173Z,405.35
2022-10-13T09:56:40.537Z,398.17
2022-10-13T09:59:31.014Z,397.85
2022-10-13T10:02:02.741Z,402.67
2022-10-13T10:04:36.630Z,397.60
2022-10-13T10:07:11.836Z,407.13
2022-10-13T10:09:42.599Z,399.58
2022-10-13T10:12:16.526Z,408.77
2022-10-13T10:14:44.111Z,418.98
2022-10-13T10:17:22.295Z,418.35
2022-10-13T10:20:03.636Z,401.17
2022-10-13T10:22:40.974Z,407.95
2022-10-13T10:25:23.255Z,392.50
2022-10-13T10:28:07.168Z,392.38
2022-10-13T10:30:39.193Z,380.23
2022-10-13T10:33:12.902Z,381.75
2022-10-13T10:35:49.677Z,402.70
2022-10-13T10:38:29.846Z,401.65
2022-10-13T10:41:05.809Z,389.05
2022-10-13T10:43:44.127Z,387.80
2022-10-13T10:46:18.035Z,379.85
2022-10-13T10:48:50.246Z,395.00
2022-10-13T10:51:19.563Z,400.73
2022-10-13T10:53:56.155Z,406.13
2022-10-13T10:56:48.505Z,396.17
2022-10-13T10:59:26.877Z,401.50
2022-10-13T11:02:05.535Z,419.30
2022-10-13T11:04:42.532Z,413.40
2022-10-13T11:07:35.153Z,418.02
2022-10-13T11:10:21.174Z,415.17
2022-10-13T11:13:18.109Z,419.98
2022-10-13T11:15:48.133Z,433.50
2022-10-13T11:18:53.528Z,457.60
2022-10-13T11:21:23.733Z,432.38
2022-10-13T11:23:52.037Z,432.40
2022-10-13T11:26:32.844Z,474.08
2022-10-13T11:29:01.215Z,464.45
2022-10-13T11:31:33.704Z,485.63
2022-10-13T11:34:04.796Z,442.73
2022-10-13T11:36:47.863Z,477.30
2022-10-13T11:40:01.904Z,493.83
2022-10-13T11:43:09.094Z,434.83
2022-10-13T11:45:58.384Z,450.33
2022-10-13T11:49:02.061Z,450.45
2022-10-13T11:51:50.616Z,425.92
2022-10-13T11:54:28.964Z,423.77
2022-10-13T11:56:58.797Z,436.40
2022-10-13T11:59:31.052Z,424.73
2022-10-13T12:02:06.893Z,445.13
2022-10-13T12:04:34.970Z,437.85
2022-10-13T12:07:07.291Z,446.35
2022-10-13T12:09:37.590Z,435.00
2022-10-13T12:12:13.610Z,458.38
2022-10-13T12:14:44.141Z,483.48
2022-10-13T12:17:24.423Z,492.00
2022-10-13T12:19:53.234Z,492.13
2022-10-13T12:22:23.694Z,512.50
2022-10-13T12:25:00.246Z,501.70
2022-10-13T12:27:32.408Z,511.58
2022-10-13T12:30:00.842Z,501.70
2022-10-13T12:32:31.484Z,484.77
2022-10-13T12:35:12.007Z,499.80
2022-10-13T12:37:41.595Z,501.48
2022-10-13T12:40:14.527Z,472.13
2022-10-13T12:42:43.969Z,453.30
2022-10-13T12:45:16.904Z,480.35
2022-10-13T12:47:50.979Z,481.70
2022-10-13T12:50:33.399Z,463.30
2022-10-13T12:53:15.193Z,451.17
2022-10-13T12:55:55.144Z,484.52
2022-10-13T12:58:26.924Z,480.65
2022-10-13T13:01:23.207Z,482.95
2022-10-13T13:03:56.428Z,471.60
2022-10-13T13:06:31.048Z,460.55
2022-10-13T13:09:25.669Z,470.20
2022-10-13T13:12:23.571Z,429.02
2022-10-13T13:14:55.388Z,441.73
2022-10-13T13:17:56.753Z,466.42
2022-10-13T13:20:26.055Z,476.98
2022-10-13T13:22:54.276Z,467.38
2022-10-13T13:25:24.048Z,495.23
2022-10-13T13:27:53.052Z,514.47
2022-10-13T13:30:23.961Z,484.45
2022-10-13T13:32:51.964Z,494.85
2022-10-13T13:35:19.601Z,479.67
2022-10-13T13:37:50.337Z,469.75
2022-10-13T13:40:20.871Z,462.67
2022-10-13T13:42:49.907Z,486.35
2022-10-13T13:45:19.454Z,511.35
2022-10-13T13:47:47.656Z,500.73
2022-10-13T13:50:18.409Z,484.65
2022-10-13T13:52:56.845Z,527.60
2022-10-13T13:55:24.671Z,484.90
2022-10-13T13:57:53.601Z,510.65
2022-10-13T14:00:21.689Z,520.92
2022-10-13T14:02:55.835Z,497.95
2022-10-13T14:05:23.594Z,513.25
2022-10-13T14:07:54.523Z,515.70
2022-10-13T14:10:22.121Z,504.67
2022-10-13T14:12:49.718Z,508.42
2022-10-13T14:15:19.108Z,515.70
2022-10-13T14:17:46.680Z,479.35
2022-10-13T14:20:14.321Z,514.25
2022-10-13T14:22:42.343Z,494.77
2022-10-13T14:25:10.977Z,518.53
2022-10-13T14:27:38.925Z,510.98
2022-10-13T14:30:10.074Z,505.77
2022-10-13T14:32:39.435Z,503.52
2022-10-13T14:35:07.977Z,496.98
2022-10-13T14:37:36.189Z,513.45
2022-10-13T14:40:04.559Z,501.83
2022-10-13T14:42:33.473Z,494.13
2022-10-13T14:45:02.708Z,505.05
2022-10-13T14:47:30.513Z,521.67
2022-10-13T14:50:01.256Z,521.70
2022-10-13T14:52:28.908Z,524.17
2022-10-13T14:54:56.540Z,518.03
2022-10-13T14:57:24.100Z,496.27
2022-10-13T14:59:51.798Z,508.52
2022-10-13T15:02:19.381Z,504.10
2022-10-13T15:04:53.403Z,505.90
2022-10-13T15:07:22.618Z,503.92
2022-10-13T15:10:04.941Z,509.60
2022-10-13T15:12:32.955Z,480.40
2022-10-13T15:15:00.581Z,497.95
2022-10-13T15:17:28.262Z,509.75
2022-10-13T15:19:55.813Z,505.63
2022-10-13T15:22:25.022Z,505.10
2022-10-13T15:24:52.676Z,525.60
2022-10-13T15:27:20.349Z,481.88
2022-10-13T15:29:47.955Z,496.88
2022-10-13T15:32:19.011Z,512.45
2022-10-13T15:34:52.213Z,495.42
2022-10-13T15:37:19.841Z,519.47
2022-10-13T15:39:53.165Z,503.02
2022-10-13T15:42:24.060Z,525.53
2022-10-13T15:45:08.946Z,517.78
2022-10-13T15:47:38.127Z,484.50
2022-10-13T15:50:06.263Z,502.55
2022-10-13T15:52:38.521Z,480.88
2022-10-13T15:55:08.456Z,518.67
2022-10-13T15:57:36.149Z,513.83
2022-10-13T16:00:05.244Z,485.80
2022-10-13T16:02:40.297Z,499.30
2022-10-13T16:05:10.221Z,498.00
2022-10-13T16:07:39.118Z,503.15
2022-10-13T16:10:09.451Z,488.73
2022-10-13T16:12:37.204Z,488.02
2022-10-13T16:15:05.372Z,480.67
2022-10-13T16:17:33.067Z,489.02
2022-10-13T16:20:00.886Z,487.52
2022-10-13T16:22:28.512Z,459.83
2022-10-13T16:24:56.141Z,463.35
2022-10-13T16:27:25.090Z,482.23
2022-10-13T16:29:52.703Z,435.92
2022-10-13T16:32:20.705Z,478.58
2022-10-13T16:34:49.178Z,446.90
2022-10-13T16:37:20.482Z,407.92
2022-10-13T16:39:51.663Z,441.65
2022-10-13T16:42:19.834Z,419.75
2022-10-13T16:44:48.766Z,429.55
2022-10-13T16:47:18.597Z,436.27
2022-10-13T16:49:46.823Z,448.42
2022-10-13T16:52:15.825Z,456.48
2022-10-13T16:54:45.062Z,436.67
2022-10-13T16:57:13.472Z,456.70
2022-10-13T16:59:41.792Z,441.55
2022-10-13T17:02:15.289Z,458.15
2022-10-13T17:04:44.159Z,496.50
2022-10-13T17:07:11.748Z,489.10
2022-10-13T17:09:39.527Z,505.10
2022-10-13T17:12:07.729Z,455.52
2022-10-13T17:14:35.552Z,477.83
2022-10-13T17:17:03.398Z,484.80
2022-10-13T17:19:32.343Z,498.33
2022-10-13T17:22:00.008Z,466.80
2022-10-13T17:24:29.662Z,494.48
2022-10-13T17:26:57.279Z,487.42
2022-10-13T17:29:24.882Z,479.52
2022-10-13T17:31:54.301Z,494.67
2022-10-13T17:34:23.137Z,506.27
2022-10-13T17:36:53.568Z,484.42
2022-10-13T17:39:21.233Z,487.77
2022-10-13T17:41:48.797Z,502.73
2022-10-13T17:44:20.254Z,510.42
2022-10-13T17:46:49.728Z,493.65
2022-10-13T17:49:17.976Z,494.17
2022-10-13T17:51:46.117Z,492.77
2022-10-13T17:54:16.614Z,463.15
2022-10-13T17:56:45.088Z,459.90
2022-10-13T17:59:13.442Z,486.83
2022-10-13T18:01:41.952Z,516.75
2022-10-13T18:04:12.390Z,503.15
2022-10-13T18:06:43.888Z,496.85
2022-10-13T18:09:13.994Z,509.38
2022-10-13T18:11:49.715Z,468.77
2022-10-13T18:14:18.238Z,492.65
2022-10-13T18:16:46.603Z,475.05
2022-10-13T18:19:15.979Z,488.38
2022-10-13T18:21:43.623Z,472.38
2022-10-13T18:24:11.919Z,474.42
2022-10-13T18:26:40.004Z,476.42
2022-10-13T18:29:11.628Z,485.30
2022-10-13T18:31:41.049Z,478.70
2022-10-13T18:34:11.239Z,475.95
2022-10-13T18:36:41.502Z,468.20
2022-10-13T18:39:12.416Z,445.92
2022-10-13T18:41:41.840Z,490.67
2022-10-13T18:44:10.801Z,466.08
2022-10-13T18:46:39.409Z,491.15
2022-10-13T18:49:08.654Z,482.42
2022-10-13T18:51:39.962Z,517.70
2022-10-13T18:54:08.831Z,468.92
2022-10-13T18:56:37.103Z,440.48
2022-10-13T18:59:07.019Z,485.35
2022-10-13T19:01:37.291Z,485.27
2022-10-13T19:04:05.528Z,467.92
2022-10-13T19:06:33.868Z,466.30
2022-10-13T19:09:04.802Z,461.70
2022-10-13T19:11:35.853Z,461.67
2022-10-13T19:14:05.713Z,463.38
2022-10-13T19:16:39.273Z,456.20
2022-10-13T19:19:08.642Z,472.55
2022-10-13T19:21:36.741Z,474.30
2022-10-13T19:24:06.434Z,469.30
2022-10-13T19:26:35.952Z,498.15
2022-10-13T19:29:06.283Z,487.35
2022-10-13T19:31:34.990Z,490.48
2022-10-13T19:34:09.365Z,443.98
2022-10-13T19:36:39.787Z,466.38
2022-10-13T19:39:11.796Z,476.67
2022-10-13T19:41:39.805Z,460.63
2022-10-13T19:44:07.599Z,472.55
2022-10-13T19:46:39.800Z,452.58
2022-10-13T19:49:09.262Z,482.63
2022-10-13T19:51:38.293Z,476.15
2022-10-13T19:54:06.081Z,482.48
2022-10-13T19:56:34.021Z,472.58
2022-10-13T19:59:04.353Z,482.75
2022-10-13T20:01:32.751Z,477.23
2022-10-13T20:04:22.540Z,492.40
2022-10-13T20:07:10.546Z,454.42
2022-10-13T20:09:58.393Z,457.98
2022-10-13T20:12:48.345Z,451.15
2022-10-13T20:15:40.841Z,469.83
2022-10-13T20:18:28.757Z,457.98
2022-10-13T20:21:18.631Z,489.25
2022-10-13T20:24:06.992Z,446.23
2022-10-13T20:26:54.978Z,443.55
2022-10-13T20:29:43.683Z,445.75
2022-10-13T20:32:31.569Z,455.27
2022-10-13T20:35:19.449Z,413.45
2022-10-13T20:38:10.136Z,446.30
2022-10-13T20:41:04.648Z,437.38
2022-10-13T20:43:54.475Z,434.00
2022-10-13T20:46:42.356Z,447.63
2022-10-13T20:49:30.220Z,448.20
2022-10-13T20:52:18.122Z,448.83
2022-10-13T20:55:11.185Z,434.27
2022-10-13T20:57:59.056Z,443.15
2022-10-13T21:00:47.023Z,423.67
2022-10-13T21:03:35.017Z,439.40
2022-10-13T21:06:26.623Z,445.63
2022-10-13T21:09:14.916Z,433.95
2022-10-13T21:12:04.507Z,446.95
2022-10-13T21:14:52.387Z,445.55
2022-10-13T21:17:42.443Z,448.98
2022-10-13T21:20:30.539Z,447.38
2022-10-13T21:23:18.459Z,454.98
2022-10-13T21:26:07.737Z,459.08
2022-10-13T21:28:57.520Z,452.23
2022-10-13T21:31:45.669Z,430.88
2022-10-13T21:34:33.616Z,466.17
2022-10-13T21:37:21.805Z,456.25
2022-10-13T21:40:10.887Z,455.13
2022-10-13T21:42:58.761Z,454.00
2022-10-13T21:45:50.750Z,425.00
2022-10-13T21:48:38.783Z,474.30
2022-10-13T21:51:29.472Z,457.23
2022-10-13T21:54:17.509Z,469.00
2022-10-13T21:57:05.449Z,478.48
2022-10-13T21:59:53.323Z,448.67
2022-10-13T22:02:42.535Z,455.95
2022-10-13T22:05:31.427Z,480.33
2022-10-13T22:08:19.342Z,447.55
2022-10-13T22:11:09.173Z,462.90
2022-10-13T22:13:57.550Z,462.33
2022-10-13T22:16:47.698Z,464.30
2022-10-13T22:19:37.048Z,484.30
2022-10-13T22:22:30.096Z,466.25
2022-10-13T22:25:19.034Z,465.63
2022-10-13T22:28:06.907Z,448.05
2022-10-13T22:30:56.409Z,454.58
2022-10-13T22:33:44.864Z,443.75
2022-10-13T22:36:34.168Z,478.42
2022-10-13T22:39:23.316Z,452.90
2022-10-13T22:42:14.203Z,450.63
2022-10-13T22:45:02.254Z,444.58
2022-10-13T22:47:51.764Z,446.77
2022-10-13T22:50:39.660Z,462.70
2022-10-13T22:53:28.897Z,451.65
2022-10-13T22:56:18.895Z,447.40
2022-10-13T22:59:09.481Z,452.85
2022-10-13T23:01:57.370Z,460.55
2022-10-13T23:04:45.251Z,446.90
2022-10-13T23:07:33.116Z,463.17
2022-10-13T23:10:22.366Z,453.35
2022-10-13T23:13:10.302Z,476.20
2022-10-13T23:16:02.166Z,457.25
2022-10-13T23:18:55.588Z,453.52
2022-10-13T23:21:43.596Z,449.05
2022-10-13T23:24:31.975Z,444.20
2022-10-13T23:27:21.502Z,447.08
2022-10-13T23:30:11.687Z,471.35
2022-10-13T23:32:59.605Z,460.10
2022-10-13T23:35:54.645Z,457.75
2022-10-13T23:38:42.638Z,437.45
2022-10-13T23:41:30.814Z,437.50
2022-10-13T23:44:20.025Z,501.40
2022-10-13T23:47:08.755Z,456.88
2022-10-13T23:49:56.613Z,464.35
2022-10-13T23:52:44.877Z,452.10
2022-10-13T23:55:37.503Z,451.00
2022-10-13T23:58:25.390Z,462.98
